sensor_id;sensor_type;location;lat;lon;timestamp;temperature;humidity
11505;DHT22;5809;53.262;10.408;2024-02-14T00:00:32;4.70;99.90
11505;DHT22;5809;53.262;10.408;2024-02-14T00:02:59;4.60;99.90
11505;DHT22;5809;53.262;10.408;2024-02-14T00:05:28;4.60;99.90
11505;DHT22;5809;53.262;10.408;2024-02-14T00:07:55;4.50;99.90
11505;DHT22;5809;53.262;10.408;2024-02-14T00:10:22;5.20;99.90
11505;DHT22;5809;53.262;10.408;2024-02-14T00:12:49;4.50;99.90
11505;DHT22;5809;53.262;10.408;2024-02-14T00:15:16;6.30;99.90
11505;DHT22;5809;53.262;10.408;2024-02-14T00:17:43;4.50;99.90
11505;DHT22;5809;53.262;10.408;2024-02-14T00:20:10;4.40;99.90
11505;DHT22;5809;53.262;10.408;2024-02-14T00:22:39;4.40;99.90
11505;DHT22;5809;53.262;10.408;2024-02-14T00:27:34;4.40;99.90
11505;DHT22;5809;53.262;10.408;2024-02-14T00:30:01;4.50;99.90
11505;DHT22;5809;53.262;10.408;2024-02-14T00:32:29;4.50;99.90
11505;DHT22;5809;53.262;10.408;2024-02-14T00:34:54;4.40;99.90
11505;DHT22;5809;53.262;10.408;2024-02-14T00:37:21;4.40;99.90
11505;DHT22;5809;53.262;10.408;2024-02-14T00:39:49;4.40;99.90
11505;DHT22;5809;53.262;10.408;2024-02-14T00:42:17;4.50;99.90
11505;DHT22;5809;53.262;10.408;2024-02-14T00:44:44;4.50;99.90
11505;DHT22;5809;53.262;10.408;2024-02-14T00:47:11;4.50;99.90
11505;DHT22;5809;53.262;10.408;2024-02-14T00:52:05;4.60;99.90
11505;DHT22;5809;53.262;10.408;2024-02-14T00:54:34;4.60;99.90
11505;DHT22;5809;53.262;10.408;2024-02-14T00:57:02;4.60;99.90
11505;DHT22;5809;53.262;10.408;2024-02-14T00:59:29;4.60;99.90
11505;DHT22;5809;53.262;10.408;2024-02-14T01:01:56;4.60;99.90
11505;DHT22;5809;53.262;10.408;2024-02-14T01:04:22;5.00;99.90
11505;DHT22;5809;53.262;10.408;2024-02-14T01:06:49;4.70;99.90
11505;DHT22;5809;53.262;10.408;2024-02-14T01:09:18;4.70;99.90
11505;DHT22;5809;53.262;10.408;2024-02-14T01:11:45;4.70;99.90
11505;DHT22;5809;53.262;10.408;2024-02-14T01:14:13;4.70;99.90
11505;DHT22;5809;53.262;10.408;2024-02-14T01:16:44;4.80;99.90
11505;DHT22;5809;53.262;10.408;2024-02-14T01:19:11;4.80;99.90
11505;DHT22;5809;53.262;10.408;2024-02-14T01:21:38;4.90;99.90
11505;DHT22;5809;53.262;10.408;2024-02-14T01:24:05;4.90;99.90
11505;DHT22;5809;53.262;10.408;2024-02-14T01:26:34;4.90;99.90
11505;DHT22;5809;53.262;10.408;2024-02-14T01:29:01;4.90;99.90
11505;DHT22;5809;53.262;10.408;2024-02-14T01:31:29;4.80;99.90
11505;DHT22;5809;53.262;10.408;2024-02-14T01:33:57;4.80;99.90
11505;DHT22;5809;53.262;10.408;2024-02-14T01:36:24;4.70;99.90
11505;DHT22;5809;53.262;10.408;2024-02-14T01:38:51;4.60;99.90
11505;DHT22;5809;53.262;10.408;2024-02-14T01:41:18;4.50;99.90
11505;DHT22;5809;53.262;10.408;2024-02-14T01:43:46;4.50;99.90
11505;DHT22;5809;53.262;10.408;2024-02-14T01:46:14;4.40;99.90
11505;DHT22;5809;53.262;10.408;2024-02-14T01:48:42;4.40;99.90
11505;DHT22;5809;53.262;10.408;2024-02-14T01:51:11;4.40;99.90
11505;DHT22;5809;53.262;10.408;2024-02-14T01:53:40;4.40;99.90
11505;DHT22;5809;53.262;10.408;2024-02-14T01:58:36;4.30;99.90
11505;DHT22;5809;53.262;10.408;2024-02-14T02:01:03;4.30;99.90
11505;DHT22;5809;53.262;10.408;2024-02-14T02:03:30;4.20;99.90
11505;DHT22;5809;53.262;10.408;2024-02-14T02:06:02;4.10;99.90
11505;DHT22;5809;53.262;10.408;2024-02-14T02:10:58;4.10;99.90
11505;DHT22;5809;53.262;10.408;2024-02-14T02:13:25;4.00;99.90
11505;DHT22;5809;53.262;10.408;2024-02-14T02:15:52;4.00;99.90
11505;DHT22;5809;53.262;10.408;2024-02-14T02:18:18;4.00;99.90
11505;DHT22;5809;53.262;10.408;2024-02-14T02:20:46;3.90;99.90
11505;DHT22;5809;53.262;10.408;2024-02-14T02:23:14;3.90;99.90
11505;DHT22;5809;53.262;10.408;2024-02-14T02:25:41;4.00;99.90
11505;DHT22;5809;53.262;10.408;2024-02-14T02:30:35;3.90;99.90
11505;DHT22;5809;53.262;10.408;2024-02-14T02:33:02;3.90;99.90
11505;DHT22;5809;53.262;10.408;2024-02-14T02:35:29;3.90;99.90
11505;DHT22;5809;53.262;10.408;2024-02-14T02:37:56;3.90;99.90
11505;DHT22;5809;53.262;10.408;2024-02-14T02:40:25;3.90;99.90
11505;DHT22;5809;53.262;10.408;2024-02-14T02:42:52;3.90;99.90
11505;DHT22;5809;53.262;10.408;2024-02-14T02:45:19;3.90;99.90
11505;DHT22;5809;53.262;10.408;2024-02-14T02:50:13;4.00;99.90
11505;DHT22;5809;53.262;10.408;2024-02-14T02:52:40;3.90;99.90
11505;DHT22;5809;53.262;10.408;2024-02-14T02:55:07;3.90;99.90
11505;DHT22;5809;53.262;10.408;2024-02-14T02:57:35;3.90;99.90
11505;DHT22;5809;53.262;10.408;2024-02-14T03:00:06;4.00;99.90
11505;DHT22;5809;53.262;10.408;2024-02-14T03:02:35;4.00;99.90
11505;DHT22;5809;53.262;10.408;2024-02-14T03:05:04;4.00;99.90
11505;DHT22;5809;53.262;10.408;2024-02-14T03:07:32;6.80;99.90
11505;DHT22;5809;53.262;10.408;2024-02-14T03:09:59;4.00;99.90
11505;DHT22;5809;53.262;10.408;2024-02-14T03:12:25;4.00;99.90
11505;DHT22;5809;53.262;10.408;2024-02-14T03:14:57;4.00;99.90
11505;DHT22;5809;53.262;10.408;2024-02-14T03:17:24;4.00;99.90
11505;DHT22;5809;53.262;10.408;2024-02-14T03:19:51;4.00;99.90
11505;DHT22;5809;53.262;10.408;2024-02-14T03:22:18;4.00;99.90
11505;DHT22;5809;53.262;10.408;2024-02-14T03:27:12;4.10;99.90
11505;DHT22;5809;53.262;10.408;2024-02-14T03:29:39;4.10;99.90
11505;DHT22;5809;53.262;10.408;2024-02-14T03:32:08;4.10;99.90
11505;DHT22;5809;53.262;10.408;2024-02-14T03:34:34;4.10;99.90
11505;DHT22;5809;53.262;10.408;2024-02-14T03:37:01;4.10;99.90
11505;DHT22;5809;53.262;10.408;2024-02-14T03:41:57;4.10;99.90
11505;DHT22;5809;53.262;10.408;2024-02-14T03:44:26;4.10;99.90
11505;DHT22;5809;53.262;10.408;2024-02-14T03:46:53;4.00;99.90
11505;DHT22;5809;53.262;10.408;2024-02-14T03:49:21;4.00;99.90
11505;DHT22;5809;53.262;10.408;2024-02-14T03:51:48;4.00;99.90
11505;DHT22;5809;53.262;10.408;2024-02-14T03:54:18;4.00;99.90
11505;DHT22;5809;53.262;10.408;2024-02-14T03:56:45;4.00;99.90
11505;DHT22;5809;53.262;10.408;2024-02-14T04:01:44;4.00;99.90
11505;DHT22;5809;53.262;10.408;2024-02-14T04:04:10;4.00;99.90
11505;DHT22;5809;53.262;10.408;2024-02-14T04:06:39;4.10;99.90
11505;DHT22;5809;53.262;10.408;2024-02-14T04:09:07;4.10;99.90
11505;DHT22;5809;53.262;10.408;2024-02-14T04:11:34;4.10;99.90
11505;DHT22;5809;53.262;10.408;2024-02-14T04:14:01;4.10;99.90
11505;DHT22;5809;53.262;10.408;2024-02-14T04:16:28;4.10;99.90
11505;DHT22;5809;53.262;10.408;2024-02-14T04:18:55;4.10;99.90
11505;DHT22;5809;53.262;10.408;2024-02-14T04:21:22;4.10;99.90
11505;DHT22;5809;53.262;10.408;2024-02-14T04:23:50;4.10;99.90
11505;DHT22;5809;53.262;10.408;2024-02-14T04:26:19;4.10;99.90
11505;DHT22;5809;53.262;10.408;2024-02-14T04:28:46;4.20;99.90
11505;DHT22;5809;53.262;10.408;2024-02-14T04:33:41;4.10;99.90
11505;DHT22;5809;53.262;10.408;2024-02-14T04:36:08;4.20;99.90
11505;DHT22;5809;53.262;10.408;2024-02-14T04:38:36;4.20;99.90
11505;DHT22;5809;53.262;10.408;2024-02-14T04:41:04;4.20;99.90
11505;DHT22;5809;53.262;10.408;2024-02-14T04:43:31;4.20;99.90
11505;DHT22;5809;53.262;10.408;2024-02-14T04:45:58;4.10;99.90
11505;DHT22;5809;53.262;10.408;2024-02-14T04:48:25;4.20;99.90
11505;DHT22;5809;53.262;10.408;2024-02-14T04:50:52;4.30;99.90
11505;DHT22;5809;53.262;10.408;2024-02-14T04:55:46;4.30;99.90
11505;DHT22;5809;53.262;10.408;2024-02-14T04:58:14;4.30;99.90
11505;DHT22;5809;53.262;10.408;2024-02-14T05:00:41;4.30;99.90
11505;DHT22;5809;53.262;10.408;2024-02-14T05:03:08;4.30;99.90
11505;DHT22;5809;53.262;10.408;2024-02-14T05:08:04;4.30;99.90
11505;DHT22;5809;53.262;10.408;2024-02-14T05:10:31;4.30;99.90
11505;DHT22;5809;53.262;10.408;2024-02-14T05:12:58;4.40;99.90
11505;DHT22;5809;53.262;10.408;2024-02-14T05:15:26;4.40;99.90
11505;DHT22;5809;53.262;10.408;2024-02-14T05:20:22;4.40;99.90
11505;DHT22;5809;53.262;10.408;2024-02-14T05:22:48;4.40;99.90
11505;DHT22;5809;53.262;10.408;2024-02-14T05:25:15;4.40;99.90
11505;DHT22;5809;53.262;10.408;2024-02-14T05:27:44;4.50;99.90
11505;DHT22;5809;53.262;10.408;2024-02-14T05:30:12;4.50;99.90
11505;DHT22;5809;53.262;10.408;2024-02-14T05:32:41;4.40;99.90
11505;DHT22;5809;53.262;10.408;2024-02-14T05:35:08;4.40;99.90
11505;DHT22;5809;53.262;10.408;2024-02-14T05:37:35;4.50;99.90
11505;DHT22;5809;53.262;10.408;2024-02-14T05:40:03;4.50;99.90
11505;DHT22;5809;53.262;10.408;2024-02-14T05:42:32;4.50;99.90
11505;DHT22;5809;53.262;10.408;2024-02-14T05:45:00;4.50;99.90
11505;DHT22;5809;53.262;10.408;2024-02-14T05:47:29;4.50;99.90
11505;DHT22;5809;53.262;10.408;2024-02-14T05:49:58;4.60;99.90
11505;DHT22;5809;53.262;10.408;2024-02-14T05:52:25;4.60;99.90
11505;DHT22;5809;53.262;10.408;2024-02-14T05:54:52;4.60;99.90
11505;DHT22;5809;53.262;10.408;2024-02-14T05:57:19;4.60;99.90
11505;DHT22;5809;53.262;10.408;2024-02-14T05:59:46;4.60;99.90
11505;DHT22;5809;53.262;10.408;2024-02-14T06:02:13;4.70;99.90
11505;DHT22;5809;53.262;10.408;2024-02-14T06:04:40;4.70;99.90
11505;DHT22;5809;53.262;10.408;2024-02-14T06:07:09;4.70;99.90
11505;DHT22;5809;53.262;10.408;2024-02-14T06:09:37;4.70;99.90
11505;DHT22;5809;53.262;10.408;2024-02-14T06:12:04;4.70;99.90
11505;DHT22;5809;53.262;10.408;2024-02-14T06:14:31;4.80;99.90
11505;DHT22;5809;53.262;10.408;2024-02-14T06:19:27;4.80;99.90
11505;DHT22;5809;53.262;10.408;2024-02-14T06:24:22;4.80;99.90
11505;DHT22;5809;53.262;10.408;2024-02-14T06:26:49;4.90;99.90
11505;DHT22;5809;53.262;10.408;2024-02-14T06:31:43;4.90;99.90
11505;DHT22;5809;53.262;10.408;2024-02-14T06:34:10;4.90;99.90
11505;DHT22;5809;53.262;10.408;2024-02-14T06:36:36;4.90;99.90
11505;DHT22;5809;53.262;10.408;2024-02-14T06:39:06;4.90;99.90
11505;DHT22;5809;53.262;10.408;2024-02-14T06:41:34;4.90;99.90
11505;DHT22;5809;53.262;10.408;2024-02-14T06:48:55;5.00;99.90
11505;DHT22;5809;53.262;10.408;2024-02-14T06:51:22;5.00;99.90
11505;DHT22;5809;53.262;10.408;2024-02-14T06:53:50;7.10;99.90
11505;DHT22;5809;53.262;10.408;2024-02-14T06:56:16;5.00;99.90
11505;DHT22;5809;53.262;10.408;2024-02-14T06:58:45;2.10;99.90
11505;DHT22;5809;53.262;10.408;2024-02-14T07:01:11;5.00;99.90
11505;DHT22;5809;53.262;10.408;2024-02-14T07:03:40;5.10;99.90
11505;DHT22;5809;53.262;10.408;2024-02-14T07:08:34;5.10;99.90
11505;DHT22;5809;53.262;10.408;2024-02-14T07:11:01;5.10;99.90
11505;DHT22;5809;53.262;10.408;2024-02-14T07:15:56;5.20;99.90
11505;DHT22;5809;53.262;10.408;2024-02-14T07:23:18;5.10;99.90
11505;DHT22;5809;53.262;10.408;2024-02-14T07:25:45;5.20;99.90
11505;DHT22;5809;53.262;10.408;2024-02-14T07:28:12;5.20;99.90
11505;DHT22;5809;53.262;10.408;2024-02-14T07:30:39;5.20;99.90
11505;DHT22;5809;53.262;10.408;2024-02-14T07:33:07;5.20;99.90
11505;DHT22;5809;53.262;10.408;2024-02-14T07:35:36;5.30;99.90
11505;DHT22;5809;53.262;10.408;2024-02-14T07:40:30;5.30;99.90
11505;DHT22;5809;53.262;10.408;2024-02-14T07:42:57;5.30;99.90
11505;DHT22;5809;53.262;10.408;2024-02-14T07:45:24;5.30;99.90
11505;DHT22;5809;53.262;10.408;2024-02-14T07:47:51;5.40;99.90
11505;DHT22;5809;53.262;10.408;2024-02-14T07:50:19;5.40;99.90
11505;DHT22;5809;53.262;10.408;2024-02-14T07:52:47;5.40;99.90
11505;DHT22;5809;53.262;10.408;2024-02-14T07:57:41;5.50;99.90
11505;DHT22;5809;53.262;10.408;2024-02-14T08:00:09;5.40;99.90
11505;DHT22;5809;53.262;10.408;2024-02-14T08:02:37;5.60;99.90
11505;DHT22;5809;53.262;10.408;2024-02-14T08:05:04;5.60;99.90
11505;DHT22;5809;53.262;10.408;2024-02-14T08:07:32;5.60;99.90
11505;DHT22;5809;53.262;10.408;2024-02-14T08:09:59;5.60;99.90
11505;DHT22;5809;53.262;10.408;2024-02-14T08:12:26;5.70;99.90
11505;DHT22;5809;53.262;10.408;2024-02-14T08:17:20;5.70;99.90
11505;DHT22;5809;53.262;10.408;2024-02-14T08:22:14;5.80;99.90
11505;DHT22;5809;53.262;10.408;2024-02-14T08:24:42;5.80;99.90
11505;DHT22;5809;53.262;10.408;2024-02-14T08:27:09;5.80;99.90
11505;DHT22;5809;53.262;10.408;2024-02-14T08:29:36;5.90;99.90
11505;DHT22;5809;53.262;10.408;2024-02-14T08:32:03;5.90;99.90
11505;DHT22;5809;53.262;10.408;2024-02-14T08:34:30;5.90;99.90
11505;DHT22;5809;53.262;10.408;2024-02-14T08:36:57;6.00;99.90
11505;DHT22;5809;53.262;10.408;2024-02-14T08:39:24;6.10;99.90
11505;DHT22;5809;53.262;10.408;2024-02-14T08:41:53;6.10;99.90
11505;DHT22;5809;53.262;10.408;2024-02-14T08:44:20;6.00;99.90
11505;DHT22;5809;53.262;10.408;2024-02-14T08:51:41;6.30;99.90
11505;DHT22;5809;53.262;10.408;2024-02-14T08:54:09;6.30;99.90
11505;DHT22;5809;53.262;10.408;2024-02-14T08:56:37;6.30;99.90
11505;DHT22;5809;53.262;10.408;2024-02-14T08:59:05;6.50;99.90
11505;DHT22;5809;53.262;10.408;2024-02-14T09:01:32;6.60;99.90
11505;DHT22;5809;53.262;10.408;2024-02-14T09:03:59;6.70;99.90
11505;DHT22;5809;53.262;10.408;2024-02-14T09:06:26;6.70;99.90
11505;DHT22;5809;53.262;10.408;2024-02-14T09:11:20;6.80;99.90
11505;DHT22;5809;53.262;10.408;2024-02-14T09:13:48;6.80;99.90
11505;DHT22;5809;53.262;10.408;2024-02-14T09:16:20;6.90;99.90
11505;DHT22;5809;53.262;10.408;2024-02-14T09:21:15;7.50;99.90
11505;DHT22;5809;53.262;10.408;2024-02-14T09:23:42;7.00;99.90
11505;DHT22;5809;53.262;10.408;2024-02-14T09:26:10;7.10;99.90
11505;DHT22;5809;53.262;10.408;2024-02-14T09:28:42;7.20;99.90
11505;DHT22;5809;53.262;10.408;2024-02-14T09:31:09;7.20;99.90
11505;DHT22;5809;53.262;10.408;2024-02-14T09:33:38;7.20;99.90
11505;DHT22;5809;53.262;10.408;2024-02-14T09:36:06;7.30;99.90
11505;DHT22;5809;53.262;10.408;2024-02-14T09:38:33;7.30;99.90
11505;DHT22;5809;53.262;10.408;2024-02-14T09:41:05;7.30;99.90
11505;DHT22;5809;53.262;10.408;2024-02-14T09:43:36;7.30;99.90
11505;DHT22;5809;53.262;10.408;2024-02-14T09:46:04;10.20;99.90
11505;DHT22;5809;53.262;10.408;2024-02-14T09:48:32;7.60;99.90
11505;DHT22;5809;53.262;10.408;2024-02-14T09:51:02;7.50;99.90
11505;DHT22;5809;53.262;10.408;2024-02-14T09:53:29;7.70;99.90
11505;DHT22;5809;53.262;10.408;2024-02-14T09:55:57;7.70;99.90
11505;DHT22;5809;53.262;10.408;2024-02-14T09:58:24;8.20;99.90
11505;DHT22;5809;53.262;10.408;2024-02-14T10:00:58;7.80;99.90
11505;DHT22;5809;53.262;10.408;2024-02-14T10:03:25;8.20;99.90
11505;DHT22;5809;53.262;10.408;2024-02-14T10:05:52;8.10;99.90
11505;DHT22;5809;53.262;10.408;2024-02-14T10:08:20;8.20;99.90
11505;DHT22;5809;53.262;10.408;2024-02-14T10:10:48;11.50;99.90
11505;DHT22;5809;53.262;10.408;2024-02-14T10:13:15;9.80;99.90
11505;DHT22;5809;53.262;10.408;2024-02-14T10:15:42;9.60;99.90
11505;DHT22;5809;53.262;10.408;2024-02-14T10:18:09;8.30;99.90
11505;DHT22;5809;53.262;10.408;2024-02-14T10:20:36;8.30;99.90
11505;DHT22;5809;53.262;10.408;2024-02-14T10:23:08;10.30;99.90
11505;DHT22;5809;53.262;10.408;2024-02-14T10:25:36;8.20;99.90
11505;DHT22;5809;53.262;10.408;2024-02-14T10:28:04;8.30;99.90
11505;DHT22;5809;53.262;10.408;2024-02-14T10:30:34;8.30;99.90
11505;DHT22;5809;53.262;10.408;2024-02-14T10:33:02;8.80;99.90
11505;DHT22;5809;53.262;10.408;2024-02-14T10:35:30;8.30;99.90
11505;DHT22;5809;53.262;10.408;2024-02-14T10:37:58;8.30;99.90
11505;DHT22;5809;53.262;10.408;2024-02-14T10:40:27;8.30;99.90
11505;DHT22;5809;53.262;10.408;2024-02-14T10:42:55;8.30;99.90
11505;DHT22;5809;53.262;10.408;2024-02-14T10:45:24;8.40;99.90
11505;DHT22;5809;53.262;10.408;2024-02-14T10:47:53;8.50;99.90
11505;DHT22;5809;53.262;10.408;2024-02-14T10:50:21;8.60;99.90
11505;DHT22;5809;53.262;10.408;2024-02-14T10:52:49;8.60;99.90
11505;DHT22;5809;53.262;10.408;2024-02-14T10:55:17;8.60;99.90
11505;DHT22;5809;53.262;10.408;2024-02-14T10:57:45;8.90;99.90
11505;DHT22;5809;53.262;10.408;2024-02-14T11:00:15;8.70;99.90
11505;DHT22;5809;53.262;10.408;2024-02-14T11:02:43;8.70;99.90
11505;DHT22;5809;53.262;10.408;2024-02-14T11:05:13;8.70;99.90
11505;DHT22;5809;53.262;10.408;2024-02-14T11:07:44;8.80;99.90
11505;DHT22;5809;53.262;10.408;2024-02-14T11:10:14;8.80;99.90
11505;DHT22;5809;53.262;10.408;2024-02-14T11:12:41;8.80;99.90
11505;DHT22;5809;53.262;10.408;2024-02-14T11:15:11;8.90;99.90
11505;DHT22;5809;53.262;10.408;2024-02-14T11:17:40;9.00;99.90
11505;DHT22;5809;53.262;10.408;2024-02-14T11:20:14;9.00;99.90
11505;DHT22;5809;53.262;10.408;2024-02-14T11:22:50;9.10;99.90
11505;DHT22;5809;53.262;10.408;2024-02-14T11:25:22;9.10;99.90
11505;DHT22;5809;53.262;10.408;2024-02-14T11:27:50;10.60;99.90
11505;DHT22;5809;53.262;10.408;2024-02-14T11:30:28;9.20;99.90
11505;DHT22;5809;53.262;10.408;2024-02-14T11:35:51;9.30;99.90
11505;DHT22;5809;53.262;10.408;2024-02-14T11:38:19;9.30;99.90
11505;DHT22;5809;53.262;10.408;2024-02-14T11:40:46;9.40;99.90
11505;DHT22;5809;53.262;10.408;2024-02-14T11:43:14;9.40;99.90
11505;DHT22;5809;53.262;10.408;2024-02-14T11:45:42;10.50;99.90
11505;DHT22;5809;53.262;10.408;2024-02-14T11:48:13;10.00;99.90
11505;DHT22;5809;53.262;10.408;2024-02-14T11:50:40;9.50;99.90
11505;DHT22;5809;53.262;10.408;2024-02-14T11:53:08;10.10;99.90
11505;DHT22;5809;53.262;10.408;2024-02-14T11:55:36;9.50;99.90
11505;DHT22;5809;53.262;10.408;2024-02-14T11:58:06;11.10;99.90
11505;DHT22;5809;53.262;10.408;2024-02-14T12:00:34;9.90;99.90
11505;DHT22;5809;53.262;10.408;2024-02-14T12:03:05;9.60;99.90
11505;DHT22;5809;53.262;10.408;2024-02-14T12:05:34;9.60;99.90
11505;DHT22;5809;53.262;10.408;2024-02-14T12:08:03;11.40;99.90
11505;DHT22;5809;53.262;10.408;2024-02-14T12:10:31;9.70;99.90
11505;DHT22;5809;53.262;10.408;2024-02-14T12:12:58;10.00;99.90
11505;DHT22;5809;53.262;10.408;2024-02-14T12:15:26;9.70;99.90
11505;DHT22;5809;53.262;10.408;2024-02-14T12:17:55;9.70;99.90
11505;DHT22;5809;53.262;10.408;2024-02-14T12:20:22;9.70;99.90
11505;DHT22;5809;53.262;10.408;2024-02-14T12:22:51;9.70;99.90
11505;DHT22;5809;53.262;10.408;2024-02-14T12:25:19;10.80;99.90
11505;DHT22;5809;53.262;10.408;2024-02-14T12:27:50;9.70;99.90
11505;DHT22;5809;53.262;10.408;2024-02-14T12:30:17;9.70;99.90
11505;DHT22;5809;53.262;10.408;2024-02-14T12:32:44;9.70;99.90
11505;DHT22;5809;53.262;10.408;2024-02-14T12:35:11;10.20;99.90
11505;DHT22;5809;53.262;10.408;2024-02-14T12:37:38;9.80;99.90
11505;DHT22;5809;53.262;10.408;2024-02-14T12:40:08;9.80;99.90
11505;DHT22;5809;53.262;10.408;2024-02-14T12:42:35;9.80;99.90
11505;DHT22;5809;53.262;10.408;2024-02-14T12:45:02;9.80;99.90
11505;DHT22;5809;53.262;10.408;2024-02-14T12:47:29;9.80;99.90
11505;DHT22;5809;53.262;10.408;2024-02-14T12:50:00;10.00;99.90
11505;DHT22;5809;53.262;10.408;2024-02-14T12:52:27;9.80;99.90
11505;DHT22;5809;53.262;10.408;2024-02-14T12:54:54;9.80;99.90
11505;DHT22;5809;53.262;10.408;2024-02-14T12:57:22;12.10;99.90
11505;DHT22;5809;53.262;10.408;2024-02-14T12:59:49;11.20;99.90
11505;DHT22;5809;53.262;10.408;2024-02-14T13:02:16;10.10;99.90
11505;DHT22;5809;53.262;10.408;2024-02-14T13:04:43;9.80;99.90
11505;DHT22;5809;53.262;10.408;2024-02-14T13:07:10;9.90;99.90
11505;DHT22;5809;53.262;10.408;2024-02-14T13:09:36;13.10;99.90
11505;DHT22;5809;53.262;10.408;2024-02-14T13:12:04;12.20;99.90
11505;DHT22;5809;53.262;10.408;2024-02-14T13:14:34;9.90;99.90
11505;DHT22;5809;53.262;10.408;2024-02-14T13:17:01;9.90;99.90
11505;DHT22;5809;53.262;10.408;2024-02-14T13:19:27;11.70;99.90
11505;DHT22;5809;53.262;10.408;2024-02-14T13:21:54;9.90;99.90
11505;DHT22;5809;53.262;10.408;2024-02-14T13:24:21;9.90;99.90
11505;DHT22;5809;53.262;10.408;2024-02-14T13:26:48;10.00;99.90
11505;DHT22;5809;53.262;10.408;2024-02-14T13:29:14;10.80;99.90
11505;DHT22;5809;53.262;10.408;2024-02-14T13:31:44;9.90;99.90
11505;DHT22;5809;53.262;10.408;2024-02-14T13:34:10;9.90;99.90
11505;DHT22;5809;53.262;10.408;2024-02-14T13:36:39;10.90;99.90
11505;DHT22;5809;53.262;10.408;2024-02-14T13:39:06;9.90;99.90
11505;DHT22;5809;53.262;10.408;2024-02-14T13:41:33;10.20;99.90
11505;DHT22;5809;53.262;10.408;2024-02-14T13:44:01;10.70;99.90
11505;DHT22;5809;53.262;10.408;2024-02-14T13:46:28;10.10;99.90
11505;DHT22;5809;53.262;10.408;2024-02-14T13:48:56;10.00;99.90
11505;DHT22;5809;53.262;10.408;2024-02-14T13:51:23;10.60;99.90
11505;DHT22;5809;53.262;10.408;2024-02-14T13:53:50;10.00;99.90
11505;DHT22;5809;53.262;10.408;2024-02-14T13:56:16;10.00;99.90
11505;DHT22;5809;53.262;10.408;2024-02-14T13:58:46;10.00;99.90
11505;DHT22;5809;53.262;10.408;2024-02-14T14:01:14;10.00;99.90
11505;DHT22;5809;53.262;10.408;2024-02-14T14:03:41;11.60;99.90
11505;DHT22;5809;53.262;10.408;2024-02-14T14:06:09;10.10;99.90
11505;DHT22;5809;53.262;10.408;2024-02-14T14:08:36;12.00;99.90
11505;DHT22;5809;53.262;10.408;2024-02-14T14:11:03;10.90;99.90
11505;DHT22;5809;53.262;10.408;2024-02-14T14:13:30;10.10;99.90
11505;DHT22;5809;53.262;10.408;2024-02-14T14:15:59;11.80;99.90
11505;DHT22;5809;53.262;10.408;2024-02-14T14:18:26;10.90;99.90
11505;DHT22;5809;53.262;10.408;2024-02-14T14:20:53;10.10;99.90
11505;DHT22;5809;53.262;10.408;2024-02-14T14:23:21;10.10;99.90
11505;DHT22;5809;53.262;10.408;2024-02-14T14:25:47;10.00;99.90
11505;DHT22;5809;53.262;10.408;2024-02-14T14:28:14;10.00;99.90
11505;DHT22;5809;53.262;10.408;2024-02-14T14:30:42;10.90;99.90
11505;DHT22;5809;53.262;10.408;2024-02-14T14:33:10;13.30;99.90
11505;DHT22;5809;53.262;10.408;2024-02-14T14:35:37;10.00;99.90
11505;DHT22;5809;53.262;10.408;2024-02-14T14:38:04;10.10;99.90
11505;DHT22;5809;53.262;10.408;2024-02-14T14:40:33;10.40;99.90
11505;DHT22;5809;53.262;10.408;2024-02-14T14:43:00;10.00;99.90
11505;DHT22;5809;53.262;10.408;2024-02-14T14:45:26;10.60;99.90
11505;DHT22;5809;53.262;10.408;2024-02-14T14:47:54;10.00;99.90
11505;DHT22;5809;53.262;10.408;2024-02-14T14:50:21;11.60;99.90
11505;DHT22;5809;53.262;10.408;2024-02-14T14:52:48;10.00;99.90
11505;DHT22;5809;53.262;10.408;2024-02-14T14:55:15;10.80;99.90
11505;DHT22;5809;53.262;10.408;2024-02-14T14:57:43;10.00;99.90
11505;DHT22;5809;53.262;10.408;2024-02-14T15:00:12;11.70;99.90
11505;DHT22;5809;53.262;10.408;2024-02-14T15:02:39;10.00;99.90
11505;DHT22;5809;53.262;10.408;2024-02-14T15:05:08;11.90;99.90
11505;DHT22;5809;53.262;10.408;2024-02-14T15:07:35;10.60;99.90
11505;DHT22;5809;53.262;10.408;2024-02-14T15:10:02;10.00;99.90
11505;DHT22;5809;53.262;10.408;2024-02-14T15:12:29;10.00;99.90
11505;DHT22;5809;53.262;10.408;2024-02-14T15:14:58;10.70;99.90
11505;DHT22;5809;53.262;10.408;2024-02-14T15:17:24;10.50;99.90
11505;DHT22;5809;53.262;10.408;2024-02-14T15:19:53;10.00;99.90
11505;DHT22;5809;53.262;10.408;2024-02-14T15:22:20;10.00;99.90
11505;DHT22;5809;53.262;10.408;2024-02-14T15:24:49;10.00;99.90
11505;DHT22;5809;53.262;10.408;2024-02-14T15:27:17;10.20;99.90
11505;DHT22;5809;53.262;10.408;2024-02-14T15:29:48;10.00;99.90
11505;DHT22;5809;53.262;10.408;2024-02-14T15:32:34;10.00;99.90
11505;DHT22;5809;53.262;10.408;2024-02-14T15:35:18;10.10;99.90
11505;DHT22;5809;53.262;10.408;2024-02-14T15:37:45;10.00;99.90
11505;DHT22;5809;53.262;10.408;2024-02-14T15:40:14;10.10;99.90
11505;DHT22;5809;53.262;10.408;2024-02-14T15:42:41;10.00;99.90
11505;DHT22;5809;53.262;10.408;2024-02-14T15:45:08;10.00;99.90
11505;DHT22;5809;53.262;10.408;2024-02-14T15:47:38;10.00;99.90
11505;DHT22;5809;53.262;10.408;2024-02-14T15:50:06;10.00;99.90
11505;DHT22;5809;53.262;10.408;2024-02-14T15:52:33;10.00;99.90
11505;DHT22;5809;53.262;10.408;2024-02-14T15:55:00;10.60;99.90
11505;DHT22;5809;53.262;10.408;2024-02-14T15:57:26;11.20;99.90
11505;DHT22;5809;53.262;10.408;2024-02-14T15:59:53;11.40;99.90
11505;DHT22;5809;53.262;10.408;2024-02-14T16:02:20;10.20;99.90
11505;DHT22;5809;53.262;10.408;2024-02-14T16:04:48;10.40;99.90
11505;DHT22;5809;53.262;10.408;2024-02-14T16:07:15;11.40;99.90
11505;DHT22;5809;53.262;10.408;2024-02-14T16:09:42;10.00;99.90
11505;DHT22;5809;53.262;10.408;2024-02-14T16:12:09;12.50;99.90
11505;DHT22;5809;53.262;10.408;2024-02-14T16:14:35;10.10;99.90
11505;DHT22;5809;53.262;10.408;2024-02-14T16:17:03;10.00;99.90
11505;DHT22;5809;53.262;10.408;2024-02-14T16:19:30;10.00;99.90
11505;DHT22;5809;53.262;10.408;2024-02-14T16:21:58;10.00;99.90
11505;DHT22;5809;53.262;10.408;2024-02-14T16:24:27;10.00;99.90
11505;DHT22;5809;53.262;10.408;2024-02-14T16:26:56;9.90;99.90
11505;DHT22;5809;53.262;10.408;2024-02-14T16:29:22;10.00;99.90
11505;DHT22;5809;53.262;10.408;2024-02-14T16:31:49;10.00;99.90
11505;DHT22;5809;53.262;10.408;2024-02-14T16:34:16;10.50;99.90
11505;DHT22;5809;53.262;10.408;2024-02-14T16:36:43;12.10;99.90
11505;DHT22;5809;53.262;10.408;2024-02-14T16:39:11;10.00;99.90
11505;DHT22;5809;53.262;10.408;2024-02-14T16:41:38;10.00;99.90
11505;DHT22;5809;53.262;10.408;2024-02-14T16:44:05;10.00;99.90
11505;DHT22;5809;53.262;10.408;2024-02-14T16:46:32;10.00;99.90
11505;DHT22;5809;53.262;10.408;2024-02-14T16:48:59;10.20;99.90
11505;DHT22;5809;53.262;10.408;2024-02-14T16:51:26;10.80;99.90
11505;DHT22;5809;53.262;10.408;2024-02-14T16:53:53;10.00;99.90
11505;DHT22;5809;53.262;10.408;2024-02-14T16:56:22;11.70;99.90
11505;DHT22;5809;53.262;10.408;2024-02-14T16:58:50;10.00;99.90
11505;DHT22;5809;53.262;10.408;2024-02-14T17:01:17;10.00;99.90